Ridgebury Captain Dr — V7FF4 — position and weather

sailwx.info

Track history (hours):
 
Tides and Currents Weather Stations Pressure Air Temp Water Temp Dewpoint Dewpoint Depression Visibility Wind Speed Wind Dir Waves Ship Positions

Ridgebury Captain Dr

Last reported at 2018-Apr-17 08:33 UTC. Time now 2018-Apr-20 21:58 UTC.
Position N 30°50' E 032°19'.

Length 285 m; draft 16.4 m.

Type: Ship. MMSI: 538005588.

Date/timePositionNaut miles runAvg speedWind from/ knotsBaromVisibWave heightAir tempDewpointWater temp
2018-Apr-17 08:33N 30°50' E 032°19'0 9.1
2018-Apr-17 08:30N 30°50' E 032°19'4 8.6
2018-Apr-17 08:00N 30°55' E 032°19'4 8.4
2018-Apr-17 07:29N 30°59' E 032°19'4 8.7
2018-Apr-17 07:00N 31°03' E 032°19'5 8.1
2018-Apr-17 06:20N 31°08' E 032°19'6 6.4
2018-Apr-17 05:27N 31°14' E 032°21'4 8.7
2018-Apr-17 05:00N 31°18' E 032°22'9 7.0
2018-Apr-17 03:40N 31°27' E 032°22'2 4.7
2018-Apr-17 03:13N 31°27' E 032°20'0 2.0
2018-Apr-17 03:00N 31°28' E 032°20'0 0.0
2018-Apr-16 23:22N 31°28' E 032°19'0 0.0
2018-Apr-16 21:36N 31°28' E 032°19'0 0.2
2018-Apr-16 20:47N 31°28' E 032°19'0 0.0
2018-Apr-16 20:29N 31°28' E 032°19'0 0.0
2018-Apr-16 19:59N 31°28' E 032°19'0 0.0
2018-Apr-16 19:28N 31°28' E 032°19'0 0.0
2018-Apr-16 18:55N 31°28' E 032°19'0 0.0
2018-Apr-16 18:28N 31°28' E 032°19'0 0.0
2018-Apr-16 17:58N 31°28' E 032°19'0 0.0
2018-Apr-16 16:54N 31°27' E 032°19'0 0.0
2018-Apr-16 15:06N 31°28' E 032°19'0 0.3
2018-Apr-16 15:00N 31°28' E 032°19'1 1.1
2018-Apr-16 14:30N 31°28' E 032°19'2 3.6
2018-Apr-16 13:58N 31°29' E 032°17'11 8.1
2018-Apr-16 12:38N 31°36' E 032°08'1 9.1
2018-Apr-16 12:29N 31°37' E 032°07'5 9.5
2018-Apr-16 12:01N 31°40' E 032°03'5 9.7
2018-Apr-16 11:31N 31°44' E 031°59'5 9.7
2018-Apr-16 11:00N 31°47' E 031°54'8 9.9
2018-Apr-16 10:14N 31°51' E 031°46'210.0
2018-Apr-16 10:00N 31°52' E 031°44'510.0
2018-Apr-16 09:30N 31°55' E 031°39'810.1
2018-Apr-16 08:44N 31°59' E 031°32'2 9.9
2018-Apr-16 08:30N 32°00' E 031°29'  
2018-Apr-13 22:59N 34°51' E 019°20'9711.1
2018-Apr-13 14:15N 35°14' E 017°24'2 7.9
2018-Apr-13 13:59N 35°16' E 017°23'12811.8
2018-Apr-13 03:07N 35°52' E 014°52'1 9.8
2018-Apr-13 03:00N 35°53' E 014°51'3 4.6
2018-Apr-13 02:26N 35°54' E 014°48'0 0.1
2018-Apr-13 01:46N 35°54' E 014°48'0 0.0
2018-Apr-13 01:28N 35°54' E 014°48'0 0.0
2018-Apr-12 22:37N 35°54' E 014°48'0 0.0
2018-Apr-12 22:30N 35°54' E 014°48'0 0.0
2018-Apr-12 20:29N 35°54' E 014°48'0 0.0
2018-Apr-12 19:58N 35°54' E 014°48'0 0.0
2018-Apr-12 19:28N 35°54' E 014°48'0 0.1
2018-Apr-12 18:59N 35°54' E 014°48'0 0.0
2018-Apr-12 18:16N 35°54' E 014°48'0 0.2
2018-Apr-12 17:51N 35°54' E 014°48'0 1.0
2018-Apr-12 17:29N 35°54' E 014°48'2 3.2
2018-Apr-12 16:57N 35°56' E 014°47'510.4
2018-Apr-12 16:27N 36°00' E 014°50'814.3
2018-Apr-12 15:55N 36°06' E 014°57'35 0.9
2018-Apr-11 00:33N 36°34' E 015°23'0 1.4
2018-Apr-11 00:29N 36°34' E 015°23'611.7
2018-Apr-10 23:59N 36°29' E 015°18'510.7
2018-Apr-10 23:30N 36°25' E 015°14'611.8
2018-Apr-10 22:59N 36°22' E 015°08'612.4
2018-Apr-10 22:28N 36°21' E 014°60'612.4
2018-Apr-10 21:57N 36°20' E 014°52'811.8
2018-Apr-10 21:14N 36°20' E 014°41'413.1
2018-Apr-10 20:56N 36°19' E 014°37'512.4
2018-Apr-10 20:30N 36°19' E 014°30'510.4
2018-Apr-10 20:00N 36°18' E 014°24'611.6
2018-Apr-10 19:29N 36°18' E 014°16'611.6
2018-Apr-10 18:59N 36°17' E 014°09'612.2
2018-Apr-10 18:30N 36°17' E 014°02'611.3
2018-Apr-10 18:00N 36°17' E 013°55'712.5
2018-Apr-10 17:28N 36°20' E 013°47'511.3
2018-Apr-10 16:59N 36°23' E 013°41'612.4
2018-Apr-10 16:29N 36°25' E 013°34'611.8
2018-Apr-10 16:00N 36°28' E 013°28'1011.7
2018-Apr-10 15:08N 36°32' E 013°16'612.2
2018-Apr-10 14:39N 36°34' E 013°10'212.3
2018-Apr-10 14:28N 36°35' E 013°07'612.8
2018-Apr-10 13:59N 36°38' E 012°60'713.6
2018-Apr-10 13:29N 36°40' E 012°52'4812.6
2018-Apr-10 09:39N 37°01' E 011°58'211.6
2018-Apr-10 09:29N 37°02' E 011°55'  
2018-Apr-07 14:08N 36°01' W 005°14'213.5
2018-Apr-07 14:00N 36°00' W 005°16'714.4
2018-Apr-07 13:30N 35°58' W 005°25'1613.7
2018-Apr-07 12:20N 35°54' W 005°44'513.1
2018-Apr-07 11:58N 35°54' W 005°50'  
Track history (hours):
 
Tides and Currents Weather Stations Pressure Air Temp Water Temp Dewpoint Dewpoint Depression Visibility Wind Speed Wind Dir Waves Ship Positions

Ridgebury Captain Dr

Last reported at 2018-Apr-17 08:33 UTC. Time now 2018-Apr-20 21:58 UTC.
Position N 30°50' E 032°19'.

Length 285 m; draft 16.4 m.

Type: Ship. MMSI: 538005588.

Date/timePositionNaut miles runAvg speedWind from/ knotsBaromVisibWave heightAir tempDewpointWater temp
2018-Apr-17 08:33N 30°50' E 032°19'0 9.1
2018-Apr-17 08:30N 30°50' E 032°19'4 8.6
2018-Apr-17 08:00N 30°55' E 032°19'4 8.4
2018-Apr-17 07:29N 30°59' E 032°19'4 8.7
2018-Apr-17 07:00N 31°03' E 032°19'5 8.1
2018-Apr-17 06:20N 31°08' E 032°19'6 6.4
2018-Apr-17 05:27N 31°14' E 032°21'4 8.7
2018-Apr-17 05:00N 31°18' E 032°22'9 7.0
2018-Apr-17 03:40N 31°27' E 032°22'2 4.7
2018-Apr-17 03:13N 31°27' E 032°20'0 2.0
2018-Apr-17 03:00N 31°28' E 032°20'0 0.0
2018-Apr-16 23:22N 31°28' E 032°19'0 0.0
2018-Apr-16 21:36N 31°28' E 032°19'0 0.2
2018-Apr-16 20:47N 31°28' E 032°19'0 0.0
2018-Apr-16 20:29N 31°28' E 032°19'0 0.0
2018-Apr-16 19:59N 31°28' E 032°19'0 0.0
2018-Apr-16 19:28N 31°28' E 032°19'0 0.0
2018-Apr-16 18:55N 31°28' E 032°19'0 0.0
2018-Apr-16 18:28N 31°28' E 032°19'0 0.0
2018-Apr-16 17:58N 31°28' E 032°19'0 0.0
2018-Apr-16 16:54N 31°27' E 032°19'0 0.0
2018-Apr-16 15:06N 31°28' E 032°19'0 0.3
2018-Apr-16 15:00N 31°28' E 032°19'1 1.1
2018-Apr-16 14:30N 31°28' E 032°19'2 3.6
2018-Apr-16 13:58N 31°29' E 032°17'11 8.1
2018-Apr-16 12:38N 31°36' E 032°08'1 9.1
2018-Apr-16 12:29N 31°37' E 032°07'5 9.5
2018-Apr-16 12:01N 31°40' E 032°03'5 9.7
2018-Apr-16 11:31N 31°44' E 031°59'5 9.7
2018-Apr-16 11:00N 31°47' E 031°54'8 9.9
2018-Apr-16 10:14N 31°51' E 031°46'210.0
2018-Apr-16 10:00N 31°52' E 031°44'510.0
2018-Apr-16 09:30N 31°55' E 031°39'810.1
2018-Apr-16 08:44N 31°59' E 031°32'2 9.9
2018-Apr-16 08:30N 32°00' E 031°29'  
2018-Apr-13 22:59N 34°51' E 019°20'9711.1
2018-Apr-13 14:15N 35°14' E 017°24'2 7.9
2018-Apr-13 13:59N 35°16' E 017°23'12811.8
2018-Apr-13 03:07N 35°52' E 014°52'1 9.8
2018-Apr-13 03:00N 35°53' E 014°51'3 4.6
2018-Apr-13 02:26N 35°54' E 014°48'0 0.1
2018-Apr-13 01:46N 35°54' E 014°48'0 0.0
2018-Apr-13 01:28N 35°54' E 014°48'0 0.0
2018-Apr-12 22:37N 35°54' E 014°48'0 0.0
2018-Apr-12 22:30N 35°54' E 014°48'0 0.0
2018-Apr-12 20:29N 35°54' E 014°48'0 0.0
2018-Apr-12 19:58N 35°54' E 014°48'0 0.0
2018-Apr-12 19:28N 35°54' E 014°48'0 0.1
2018-Apr-12 18:59N 35°54' E 014°48'0 0.0
2018-Apr-12 18:16N 35°54' E 014°48'0 0.2
2018-Apr-12 17:51N 35°54' E 014°48'0 1.0
2018-Apr-12 17:29N 35°54' E 014°48'2 3.2
2018-Apr-12 16:57N 35°56' E 014°47'510.4
2018-Apr-12 16:27N 36°00' E 014°50'814.3
2018-Apr-12 15:55N 36°06' E 014°57'35 0.9
2018-Apr-11 00:33N 36°34' E 015°23'0 1.4
2018-Apr-11 00:29N 36°34' E 015°23'611.7
2018-Apr-10 23:59N 36°29' E 015°18'510.7
2018-Apr-10 23:30N 36°25' E 015°14'611.8
2018-Apr-10 22:59N 36°22' E 015°08'612.4
2018-Apr-10 22:28N 36°21' E 014°60'612.4
2018-Apr-10 21:57N 36°20' E 014°52'811.8
2018-Apr-10 21:14N 36°20' E 014°41'413.1
2018-Apr-10 20:56N 36°19' E 014°37'512.4
2018-Apr-10 20:30N 36°19' E 014°30'510.4
2018-Apr-10 20:00N 36°18' E 014°24'611.6
2018-Apr-10 19:29N 36°18' E 014°16'611.6
2018-Apr-10 18:59N 36°17' E 014°09'612.2
2018-Apr-10 18:30N 36°17' E 014°02'611.3
2018-Apr-10 18:00N 36°17' E 013°55'712.5
2018-Apr-10 17:28N 36°20' E 013°47'511.3
2018-Apr-10 16:59N 36°23' E 013°41'612.4
2018-Apr-10 16:29N 36°25' E 013°34'611.8
2018-Apr-10 16:00N 36°28' E 013°28'1011.7
2018-Apr-10 15:08N 36°32' E 013°16'612.2
2018-Apr-10 14:39N 36°34' E 013°10'212.3
2018-Apr-10 14:28N 36°35' E 013°07'612.8
2018-Apr-10 13:59N 36°38' E 012°60'713.6
2018-Apr-10 13:29N 36°40' E 012°52'4812.6
2018-Apr-10 09:39N 37°01' E 011°58'211.6
2018-Apr-10 09:29N 37°02' E 011°55'  
2018-Apr-07 14:08N 36°01' W 005°14'213.5
2018-Apr-07 14:00N 36°00' W 005°16'714.4
2018-Apr-07 13:30N 35°58' W 005°25'1613.7
2018-Apr-07 12:20N 35°54' W 005°44'513.1
2018-Apr-07 11:58N 35°54' W 005°50'  

Dump ship's entire track history